sensor_id;sensor_type;location;lat;lon;timestamp;P1;durP1;ratioP1;P2;durP2;ratioP2
6561;SDS011;3314;50.890;4.722;2022-09-21T00:01:28;10.9;;;3.1;;
6561;SDS011;3314;50.890;4.722;2022-09-21T00:03:17;8.5;;;2.2;;
6561;SDS011;3314;50.890;4.722;2022-09-21T00:05:17;9.2;;;2.5;;
6561;SDS011;3314;50.890;4.722;2022-09-21T00:07:17;9.0;;;2.9;;
6561;SDS011;3314;50.890;4.722;2022-09-21T00:09:17;9.8;;;3.1;;
6561;SDS011;3314;50.890;4.722;2022-09-21T00:11:18;10.1;;;2.7;;
6561;SDS011;3314;50.890;4.722;2022-09-21T00:13:19;8.6;;;2.7;;
6561;SDS011;3314;50.890;4.722;2022-09-21T00:15:18;12.8;;;2.4;;
6561;SDS011;3314;50.890;4.722;2022-09-21T00:17:18;7.7;;;2.4;;
6561;SDS011;3314;50.890;4.722;2022-09-21T00:19:18;10.0;;;2.8;;
6561;SDS011;3314;50.890;4.722;2022-09-21T00:21:17;10.8;;;2.8;;
6561;SDS011;3314;50.890;4.722;2022-09-21T00:23:17;8.8;;;2.3;;
6561;SDS011;3314;50.890;4.722;2022-09-21T00:25:17;13.6;;;3.3;;
6561;SDS011;3314;50.890;4.722;2022-09-21T00:27:17;9.0;;;2.7;;
6561;SDS011;3314;50.890;4.722;2022-09-21T00:29:17;9.7;;;2.9;;
6561;SDS011;3314;50.890;4.722;2022-09-21T00:31:18;10.0;;;2.9;;
6561;SDS011;3314;50.890;4.722;2022-09-21T00:33:17;10.7;;;2.9;;
6561;SDS011;3314;50.890;4.722;2022-09-21T00:35:17;9.9;;;2.8;;
6561;SDS011;3314;50.890;4.722;2022-09-21T00:37:17;9.0;;;2.2;;
6561;SDS011;3314;50.890;4.722;2022-09-21T00:39:16;9.7;;;2.9;;
6561;SDS011;3314;50.890;4.722;2022-09-21T00:41:16;8.4;;;2.6;;
6561;SDS011;3314;50.890;4.722;2022-09-21T00:43:16;8.5;;;2.3;;
6561;SDS011;3314;50.890;4.722;2022-09-21T00:45:20;9.7;;;2.7;;
6561;SDS011;3314;50.890;4.722;2022-09-21T00:47:21;8.5;;;2.5;;
6561;SDS011;3314;50.890;4.722;2022-09-21T00:49:11;11.7;;;2.5;;
6561;SDS011;3314;50.890;4.722;2022-09-21T00:51:11;9.0;;;2.9;;
6561;SDS011;3314;50.890;4.722;2022-09-21T00:53:11;10.5;;;2.6;;
6561;SDS011;3314;50.890;4.722;2022-09-21T00:55:12;7.7;;;2.3;;
6561;SDS011;3314;50.890;4.722;2022-09-21T00:57:13;8.7;;;2.6;;
6561;SDS011;3314;50.890;4.722;2022-09-21T00:59:13;8.9;;;2.3;;
6561;SDS011;3314;50.890;4.722;2022-09-21T01:01:17;9.4;;;2.4;;
6561;SDS011;3314;50.890;4.722;2022-09-21T01:03:17;8.3;;;2.4;;
6561;SDS011;3314;50.890;4.722;2022-09-21T01:05:17;11.7;;;2.9;;
6561;SDS011;3314;50.890;4.722;2022-09-21T01:07:18;12.4;;;2.8;;
6561;SDS011;3314;50.890;4.722;2022-09-21T01:09:08;9.7;;;2.4;;
6561;SDS011;3314;50.890;4.722;2022-09-21T01:11:13;9.9;;;2.7;;
6561;SDS011;3314;50.890;4.722;2022-09-21T01:13:17;8.3;;;2.2;;
6561;SDS011;3314;50.890;4.722;2022-09-21T01:15:14;9.3;;;2.4;;
6561;SDS011;3314;50.890;4.722;2022-09-21T01:17:17;9.6;;;2.4;;
6561;SDS011;3314;50.890;4.722;2022-09-21T01:19:10;11.4;;;2.7;;
6561;SDS011;3314;50.890;4.722;2022-09-21T01:21:20;9.2;;;2.5;;
6561;SDS011;3314;50.890;4.722;2022-09-21T01:23:13;12.6;;;2.7;;
6561;SDS011;3314;50.890;4.722;2022-09-21T01:25:18;9.1;;;2.9;;
6561;SDS011;3314;50.890;4.722;2022-09-21T01:27:16;9.3;;;2.1;;
6561;SDS011;3314;50.890;4.722;2022-09-21T01:29:10;10.6;;;3.4;;
6561;SDS011;3314;50.890;4.722;2022-09-21T01:31:11;9.2;;;2.6;;
6561;SDS011;3314;50.890;4.722;2022-09-21T01:33:14;13.1;;;2.8;;
6561;SDS011;3314;50.890;4.722;2022-09-21T01:35:05;8.6;;;2.5;;
6561;SDS011;3314;50.890;4.722;2022-09-21T01:37:08;8.4;;;2.3;;
6561;SDS011;3314;50.890;4.722;2022-09-21T01:39:11;8.5;;;2.4;;
6561;SDS011;3314;50.890;4.722;2022-09-21T01:41:11;10.4;;;2.7;;
6561;SDS011;3314;50.890;4.722;2022-09-21T01:43:03;9.8;;;2.5;;
6561;SDS011;3314;50.890;4.722;2022-09-21T01:45:05;9.2;;;2.3;;
6561;SDS011;3314;50.890;4.722;2022-09-21T01:47:06;10.9;;;3.0;;
6561;SDS011;3314;50.890;4.722;2022-09-21T01:49:10;10.0;;;2.3;;
6561;SDS011;3314;50.890;4.722;2022-09-21T01:51:12;12.9;;;3.0;;
6561;SDS011;3314;50.890;4.722;2022-09-21T01:53:02;10.8;;;2.8;;
6561;SDS011;3314;50.890;4.722;2022-09-21T01:55:05;9.3;;;2.3;;
6561;SDS011;3314;50.890;4.722;2022-09-21T01:57:08;11.1;;;2.5;;
6561;SDS011;3314;50.890;4.722;2022-09-21T01:59:10;9.8;;;2.7;;
6561;SDS011;3314;50.890;4.722;2022-09-21T02:01:00;9.8;;;2.6;;
6561;SDS011;3314;50.890;4.722;2022-09-21T02:03:03;11.0;;;3.2;;
6561;SDS011;3314;50.890;4.722;2022-09-21T02:05:04;11.7;;;2.6;;
6561;SDS011;3314;50.890;4.722;2022-09-21T02:07:04;8.2;;;2.2;;
6561;SDS011;3314;50.890;4.722;2022-09-21T02:09:04;8.9;;;2.9;;
6561;SDS011;3314;50.890;4.722;2022-09-21T02:11:04;7.9;;;2.2;;
6561;SDS011;3314;50.890;4.722;2022-09-21T02:13:06;10.0;;;3.2;;
6561;SDS011;3314;50.890;4.722;2022-09-21T02:15:06;14.1;;;2.9;;
6561;SDS011;3314;50.890;4.722;2022-09-21T02:17:12;10.8;;;3.1;;
6561;SDS011;3314;50.890;4.722;2022-09-21T02:19:05;9.5;;;2.6;;
6561;SDS011;3314;50.890;4.722;2022-09-21T02:20:57;8.3;;;2.2;;
6561;SDS011;3314;50.890;4.722;2022-09-21T02:23:00;8.3;;;2.3;;
6561;SDS011;3314;50.890;4.722;2022-09-21T02:25:04;9.8;;;2.6;;
6561;SDS011;3314;50.890;4.722;2022-09-21T02:27:07;9.1;;;2.9;;
6561;SDS011;3314;50.890;4.722;2022-09-21T02:29:03;10.3;;;3.0;;
6561;SDS011;3314;50.890;4.722;2022-09-21T02:30:58;8.4;;;2.7;;
6561;SDS011;3314;50.890;4.722;2022-09-21T02:33:01;11.5;;;2.8;;
6561;SDS011;3314;50.890;4.722;2022-09-21T02:35:05;8.5;;;2.2;;
6561;SDS011;3314;50.890;4.722;2022-09-21T02:36:58;11.1;;;3.2;;
6561;SDS011;3314;50.890;4.722;2022-09-21T02:39:02;8.7;;;2.4;;
6561;SDS011;3314;50.890;4.722;2022-09-21T02:41:04;8.4;;;2.3;;
6561;SDS011;3314;50.890;4.722;2022-09-21T02:42:55;10.2;;;2.6;;
6561;SDS011;3314;50.890;4.722;2022-09-21T02:44:57;7.8;;;2.0;;
6561;SDS011;3314;50.890;4.722;2022-09-21T02:46:57;9.4;;;2.7;;
6561;SDS011;3314;50.890;4.722;2022-09-21T02:49:02;11.8;;;2.7;;
6561;SDS011;3314;50.890;4.722;2022-09-21T02:50:53;10.1;;;2.4;;
6561;SDS011;3314;50.890;4.722;2022-09-21T02:52:54;11.7;;;3.3;;
6561;SDS011;3314;50.890;4.722;2022-09-21T02:54:55;8.1;;;2.5;;
6561;SDS011;3314;50.890;4.722;2022-09-21T02:56:55;9.5;;;2.7;;
6561;SDS011;3314;50.890;4.722;2022-09-21T02:58:58;9.6;;;2.2;;
6561;SDS011;3314;50.890;4.722;2022-09-21T03:00:59;10.1;;;2.8;;
6561;SDS011;3314;50.890;4.722;2022-09-21T03:02:58;10.7;;;3.2;;
6561;SDS011;3314;50.890;4.722;2022-09-21T03:04:58;11.5;;;2.3;;
6561;SDS011;3314;50.890;4.722;2022-09-21T03:06:58;9.2;;;2.9;;
6561;SDS011;3314;50.890;4.722;2022-09-21T03:08:57;12.2;;;2.3;;
6561;SDS011;3314;50.890;4.722;2022-09-21T03:10:57;9.4;;;3.1;;
6561;SDS011;3314;50.890;4.722;2022-09-21T03:12:58;9.4;;;2.8;;
6561;SDS011;3314;50.890;4.722;2022-09-21T03:14:59;10.5;;;2.8;;
6561;SDS011;3314;50.890;4.722;2022-09-21T03:16:48;9.1;;;2.8;;
6561;SDS011;3314;50.890;4.722;2022-09-21T03:18:48;8.6;;;2.4;;
6561;SDS011;3314;50.890;4.722;2022-09-21T03:20:47;10.2;;;3.4;;
6561;SDS011;3314;50.890;4.722;2022-09-21T03:22:47;8.5;;;2.7;;
6561;SDS011;3314;50.890;4.722;2022-09-21T03:24:47;10.3;;;2.8;;
6561;SDS011;3314;50.890;4.722;2022-09-21T03:26:47;10.7;;;2.8;;
6561;SDS011;3314;50.890;4.722;2022-09-21T03:28:47;10.3;;;2.1;;
6561;SDS011;3314;50.890;4.722;2022-09-21T03:30:47;11.5;;;2.7;;
6561;SDS011;3314;50.890;4.722;2022-09-21T03:32:47;9.5;;;2.6;;
6561;SDS011;3314;50.890;4.722;2022-09-21T03:34:47;15.2;;;2.7;;
6561;SDS011;3314;50.890;4.722;2022-09-21T03:36:48;7.5;;;2.1;;
6561;SDS011;3314;50.890;4.722;2022-09-21T03:38:47;8.7;;;2.5;;
6561;SDS011;3314;50.890;4.722;2022-09-21T03:40:48;9.5;;;2.7;;
6561;SDS011;3314;50.890;4.722;2022-09-21T03:42:47;8.0;;;2.2;;
6561;SDS011;3314;50.890;4.722;2022-09-21T03:44:47;8.1;;;2.0;;
6561;SDS011;3314;50.890;4.722;2022-09-21T03:46:47;10.2;;;2.4;;
6561;SDS011;3314;50.890;4.722;2022-09-21T03:48:47;9.0;;;2.5;;
6561;SDS011;3314;50.890;4.722;2022-09-21T03:50:46;8.2;;;2.6;;
6561;SDS011;3314;50.890;4.722;2022-09-21T03:52:46;9.4;;;1.9;;
6561;SDS011;3314;50.890;4.722;2022-09-21T03:54:46;9.5;;;2.3;;
6561;SDS011;3314;50.890;4.722;2022-09-21T03:56:45;9.1;;;2.3;;
6561;SDS011;3314;50.890;4.722;2022-09-21T03:58:45;8.6;;;2.1;;
6561;SDS011;3314;50.890;4.722;2022-09-21T04:00:46;8.7;;;2.4;;
6561;SDS011;3314;50.890;4.722;2022-09-21T04:02:45;9.6;;;2.3;;
6561;SDS011;3314;50.890;4.722;2022-09-21T04:04:45;10.5;;;2.7;;
6561;SDS011;3314;50.890;4.722;2022-09-21T04:06:46;8.1;;;2.1;;
6561;SDS011;3314;50.890;4.722;2022-09-21T04:08:45;10.7;;;2.5;;
6561;SDS011;3314;50.890;4.722;2022-09-21T04:10:45;11.4;;;3.0;;
6561;SDS011;3314;50.890;4.722;2022-09-21T04:12:45;9.5;;;3.1;;
6561;SDS011;3314;50.890;4.722;2022-09-21T04:14:45;8.7;;;2.1;;
6561;SDS011;3314;50.890;4.722;2022-09-21T04:16:44;7.6;;;2.2;;
6561;SDS011;3314;50.890;4.722;2022-09-21T04:18:44;7.8;;;2.3;;
6561;SDS011;3314;50.890;4.722;2022-09-21T04:20:44;8.4;;;2.4;;
6561;SDS011;3314;50.890;4.722;2022-09-21T04:22:45;8.8;;;2.1;;
6561;SDS011;3314;50.890;4.722;2022-09-21T04:24:45;9.4;;;2.3;;
6561;SDS011;3314;50.890;4.722;2022-09-21T04:26:45;11.2;;;2.1;;
6561;SDS011;3314;50.890;4.722;2022-09-21T04:28:45;8.4;;;2.0;;
6561;SDS011;3314;50.890;4.722;2022-09-21T04:30:44;9.3;;;2.8;;
6561;SDS011;3314;50.890;4.722;2022-09-21T04:32:44;10.9;;;2.6;;
6561;SDS011;3314;50.890;4.722;2022-09-21T04:34:44;8.4;;;2.3;;
6561;SDS011;3314;50.890;4.722;2022-09-21T04:36:45;8.9;;;2.3;;
6561;SDS011;3314;50.890;4.722;2022-09-21T04:38:34;7.5;;;2.0;;
6561;SDS011;3314;50.890;4.722;2022-09-21T04:40:34;9.2;;;2.7;;
6561;SDS011;3314;50.890;4.722;2022-09-21T04:42:34;9.9;;;2.7;;
6561;SDS011;3314;50.890;4.722;2022-09-21T04:44:33;14.0;;;2.7;;
6561;SDS011;3314;50.890;4.722;2022-09-21T04:46:33;9.2;;;2.2;;
6561;SDS011;3314;50.890;4.722;2022-09-21T04:48:33;10.8;;;2.9;;
6561;SDS011;3314;50.890;4.722;2022-09-21T04:50:32;9.9;;;2.6;;
6561;SDS011;3314;50.890;4.722;2022-09-21T04:52:32;8.0;;;1.9;;
6561;SDS011;3314;50.890;4.722;2022-09-21T04:54:32;10.0;;;2.4;;
6561;SDS011;3314;50.890;4.722;2022-09-21T04:56:32;11.4;;;2.9;;
6561;SDS011;3314;50.890;4.722;2022-09-21T04:58:31;8.6;;;2.5;;
6561;SDS011;3314;50.890;4.722;2022-09-21T05:00:31;8.7;;;2.5;;
6561;SDS011;3314;50.890;4.722;2022-09-21T05:02:31;8.0;;;2.5;;
6561;SDS011;3314;50.890;4.722;2022-09-21T05:04:31;8.4;;;2.1;;
6561;SDS011;3314;50.890;4.722;2022-09-21T05:06:32;10.8;;;2.9;;
6561;SDS011;3314;50.890;4.722;2022-09-21T05:10:38;8.9;;;2.2;;
6561;SDS011;3314;50.890;4.722;2022-09-21T05:10:50;10.4;;;2.5;;
6561;SDS011;3314;50.890;4.722;2022-09-21T05:12:38;7.8;;;2.1;;
6561;SDS011;3314;50.890;4.722;2022-09-21T05:14:38;10.2;;;2.7;;
6561;SDS011;3314;50.890;4.722;2022-09-21T05:16:37;9.4;;;2.7;;
6561;SDS011;3314;50.890;4.722;2022-09-21T05:18:37;8.1;;;2.0;;
6561;SDS011;3314;50.890;4.722;2022-09-21T05:20:37;12.6;;;2.1;;
6561;SDS011;3314;50.890;4.722;2022-09-21T05:22:36;8.1;;;2.3;;
6561;SDS011;3314;50.890;4.722;2022-09-21T05:24:36;9.7;;;2.9;;
6561;SDS011;3314;50.890;4.722;2022-09-21T05:26:36;7.9;;;2.2;;
6561;SDS011;3314;50.890;4.722;2022-09-21T05:28:36;9.1;;;2.5;;
6561;SDS011;3314;50.890;4.722;2022-09-21T05:30:36;13.8;;;2.7;;
6561;SDS011;3314;50.890;4.722;2022-09-21T05:32:26;11.3;;;2.9;;
6561;SDS011;3314;50.890;4.722;2022-09-21T05:34:34;10.3;;;3.0;;
6561;SDS011;3314;50.890;4.722;2022-09-21T05:36:28;12.2;;;2.7;;
6561;SDS011;3314;50.890;4.722;2022-09-21T05:38:33;12.5;;;2.8;;
6561;SDS011;3314;50.890;4.722;2022-09-21T05:40:33;8.8;;;3.0;;
6561;SDS011;3314;50.890;4.722;2022-09-21T05:42:33;9.2;;;2.3;;
6561;SDS011;3314;50.890;4.722;2022-09-21T05:44:33;12.8;;;3.2;;
6561;SDS011;3314;50.890;4.722;2022-09-21T05:46:34;12.8;;;3.1;;
6561;SDS011;3314;50.890;4.722;2022-09-21T05:48:24;8.8;;;2.4;;
6561;SDS011;3314;50.890;4.722;2022-09-21T05:50:29;10.1;;;3.3;;
6561;SDS011;3314;50.890;4.722;2022-09-21T05:52:33;12.1;;;2.9;;
6561;SDS011;3314;50.890;4.722;2022-09-21T05:54:28;8.4;;;2.9;;
6561;SDS011;3314;50.890;4.722;2022-09-21T05:56:35;13.6;;;2.8;;
6561;SDS011;3314;50.890;4.722;2022-09-21T05:58:28;11.9;;;3.0;;
6561;SDS011;3314;50.890;4.722;2022-09-21T06:00:33;11.1;;;2.8;;
6561;SDS011;3314;50.890;4.722;2022-09-21T06:02:27;15.8;;;3.3;;
6561;SDS011;3314;50.890;4.722;2022-09-21T06:04:20;12.2;;;2.6;;
6561;SDS011;3314;50.890;4.722;2022-09-21T06:06:20;14.7;;;3.8;;
6561;SDS011;3314;50.890;4.722;2022-09-21T06:08:20;9.3;;;2.6;;
6561;SDS011;3314;50.890;4.722;2022-09-21T06:10:19;9.3;;;2.9;;
6561;SDS011;3314;50.890;4.722;2022-09-21T06:12:19;8.5;;;2.8;;
6561;SDS011;3314;50.890;4.722;2022-09-21T06:14:24;9.1;;;2.9;;
6561;SDS011;3314;50.890;4.722;2022-09-21T06:16:23;10.9;;;3.1;;
6561;SDS011;3314;50.890;4.722;2022-09-21T06:18:23;11.3;;;3.2;;
6561;SDS011;3314;50.890;4.722;2022-09-21T06:20:24;10.3;;;3.0;;
6561;SDS011;3314;50.890;4.722;2022-09-21T06:22:24;11.4;;;3.2;;
6561;SDS011;3314;50.890;4.722;2022-09-21T06:24:24;12.4;;;3.6;;
6561;SDS011;3314;50.890;4.722;2022-09-21T06:26:23;12.7;;;3.3;;
6561;SDS011;3314;50.890;4.722;2022-09-21T06:28:23;14.8;;;2.9;;
6561;SDS011;3314;50.890;4.722;2022-09-21T06:30:23;9.0;;;2.6;;
6561;SDS011;3314;50.890;4.722;2022-09-21T06:32:23;8.4;;;2.6;;
6561;SDS011;3314;50.890;4.722;2022-09-21T06:34:22;10.5;;;3.2;;
6561;SDS011;3314;50.890;4.722;2022-09-21T06:36:22;10.5;;;2.9;;
6561;SDS011;3314;50.890;4.722;2022-09-21T06:38:22;11.6;;;3.3;;
6561;SDS011;3314;50.890;4.722;2022-09-21T06:40:22;10.0;;;2.7;;
6561;SDS011;3314;50.890;4.722;2022-09-21T06:42:22;10.9;;;3.4;;
6561;SDS011;3314;50.890;4.722;2022-09-21T06:44:42;11.2;;;3.0;;
6561;SDS011;3314;50.890;4.722;2022-09-21T06:46:17;12.9;;;3.3;;
6561;SDS011;3314;50.890;4.722;2022-09-21T06:48:17;10.5;;;3.3;;
6561;SDS011;3314;50.890;4.722;2022-09-21T06:50:17;9.8;;;3.0;;
6561;SDS011;3314;50.890;4.722;2022-09-21T06:52:16;11.8;;;3.1;;
6561;SDS011;3314;50.890;4.722;2022-09-21T06:54:16;10.8;;;4.1;;
6561;SDS011;3314;50.890;4.722;2022-09-21T06:56:16;10.8;;;3.4;;
6561;SDS011;3314;50.890;4.722;2022-09-21T06:58:16;10.8;;;3.1;;
6561;SDS011;3314;50.890;4.722;2022-09-21T07:00:16;12.3;;;3.2;;
6561;SDS011;3314;50.890;4.722;2022-09-21T07:02:16;11.2;;;2.9;;
6561;SDS011;3314;50.890;4.722;2022-09-21T07:04:15;10.9;;;3.3;;
6561;SDS011;3314;50.890;4.722;2022-09-21T07:06:15;15.2;;;3.4;;
6561;SDS011;3314;50.890;4.722;2022-09-21T07:08:15;14.0;;;3.3;;
6561;SDS011;3314;50.890;4.722;2022-09-21T07:10:15;14.4;;;3.9;;
6561;SDS011;3314;50.890;4.722;2022-09-21T07:12:15;11.6;;;3.3;;
6561;SDS011;3314;50.890;4.722;2022-09-21T07:14:15;14.5;;;3.7;;
6561;SDS011;3314;50.890;4.722;2022-09-21T07:16:15;12.4;;;3.3;;
6561;SDS011;3314;50.890;4.722;2022-09-21T07:18:14;11.8;;;3.4;;
6561;SDS011;3314;50.890;4.722;2022-09-21T07:20:14;14.1;;;4.0;;
6561;SDS011;3314;50.890;4.722;2022-09-21T07:22:14;12.7;;;3.7;;
6561;SDS011;3314;50.890;4.722;2022-09-21T07:24:14;14.0;;;3.3;;
6561;SDS011;3314;50.890;4.722;2022-09-21T07:26:14;11.4;;;4.0;;
6561;SDS011;3314;50.890;4.722;2022-09-21T07:28:14;11.1;;;3.9;;
6561;SDS011;3314;50.890;4.722;2022-09-21T07:30:13;12.8;;;4.0;;
6561;SDS011;3314;50.890;4.722;2022-09-21T07:32:13;13.0;;;4.4;;
6561;SDS011;3314;50.890;4.722;2022-09-21T07:34:13;12.0;;;4.5;;
6561;SDS011;3314;50.890;4.722;2022-09-21T07:36:13;10.2;;;4.0;;
6561;SDS011;3314;50.890;4.722;2022-09-21T07:38:12;15.3;;;4.3;;
6561;SDS011;3314;50.890;4.722;2022-09-21T07:40:12;11.5;;;4.3;;
6561;SDS011;3314;50.890;4.722;2022-09-21T07:42:12;14.5;;;4.9;;
6561;SDS011;3314;50.890;4.722;2022-09-21T07:44:11;13.9;;;3.9;;
6561;SDS011;3314;50.890;4.722;2022-09-21T07:46:12;11.9;;;4.4;;
6561;SDS011;3314;50.890;4.722;2022-09-21T07:48:12;11.6;;;4.3;;
6561;SDS011;3314;50.890;4.722;2022-09-21T07:50:12;14.5;;;5.5;;
6561;SDS011;3314;50.890;4.722;2022-09-21T07:52:12;12.6;;;4.9;;
6561;SDS011;3314;50.890;4.722;2022-09-21T07:54:11;12.8;;;4.9;;
6561;SDS011;3314;50.890;4.722;2022-09-21T07:56:12;14.0;;;4.7;;
6561;SDS011;3314;50.890;4.722;2022-09-21T08:00:09;13.4;;;5.2;;
6561;SDS011;3314;50.890;4.722;2022-09-21T08:00:20;17.4;;;5.7;;
6561;SDS011;3314;50.890;4.722;2022-09-21T08:02:08;14.0;;;5.3;;
6561;SDS011;3314;50.890;4.722;2022-09-21T08:04:08;15.6;;;5.1;;
6561;SDS011;3314;50.890;4.722;2022-09-21T08:06:09;20.3;;;6.3;;
6561;SDS011;3314;50.890;4.722;2022-09-21T08:08:09;14.6;;;6.5;;
6561;SDS011;3314;50.890;4.722;2022-09-21T08:10:09;18.4;;;6.3;;
6561;SDS011;3314;50.890;4.722;2022-09-21T08:12:10;15.2;;;6.9;;
6561;SDS011;3314;50.890;4.722;2022-09-21T08:14:00;17.5;;;7.7;;
6561;SDS011;3314;50.890;4.722;2022-09-21T08:16:00;16.5;;;6.7;;
6561;SDS011;3314;50.890;4.722;2022-09-21T08:18:03;16.6;;;6.2;;
6561;SDS011;3314;50.890;4.722;2022-09-21T08:20:02;19.2;;;7.1;;
6561;SDS011;3314;50.890;4.722;2022-09-21T08:22:02;15.9;;;6.1;;
6561;SDS011;3314;50.890;4.722;2022-09-21T08:24:02;15.6;;;6.2;;
6561;SDS011;3314;50.890;4.722;2022-09-21T08:26:03;16.2;;;5.9;;
6561;SDS011;3314;50.890;4.722;2022-09-21T08:28:02;13.8;;;5.8;;
6561;SDS011;3314;50.890;4.722;2022-09-21T08:30:02;14.4;;;6.1;;
6561;SDS011;3314;50.890;4.722;2022-09-21T08:32:02;15.7;;;5.9;;
6561;SDS011;3314;50.890;4.722;2022-09-21T08:34:02;12.9;;;5.8;;
6561;SDS011;3314;50.890;4.722;2022-09-21T08:36:02;11.9;;;5.3;;
6561;SDS011;3314;50.890;4.722;2022-09-21T08:38:01;17.2;;;6.2;;
6561;SDS011;3314;50.890;4.722;2022-09-21T08:40:01;14.7;;;5.8;;
6561;SDS011;3314;50.890;4.722;2022-09-21T08:42:07;15.7;;;5.7;;
6561;SDS011;3314;50.890;4.722;2022-09-21T08:43:57;24.0;;;6.2;;
6561;SDS011;3314;50.890;4.722;2022-09-21T08:45:58;16.4;;;5.9;;
6561;SDS011;3314;50.890;4.722;2022-09-21T08:47:59;13.1;;;5.3;;
6561;SDS011;3314;50.890;4.722;2022-09-21T08:50:00;13.1;;;5.7;;
6561;SDS011;3314;50.890;4.722;2022-09-21T08:52:02;14.8;;;5.2;;
6561;SDS011;3314;50.890;4.722;2022-09-21T08:54:05;13.2;;;4.9;;
6561;SDS011;3314;50.890;4.722;2022-09-21T08:55:54;15.2;;;5.8;;
6561;SDS011;3314;50.890;4.722;2022-09-21T08:57:54;15.2;;;5.0;;
6561;SDS011;3314;50.890;4.722;2022-09-21T08:59:54;13.0;;;5.2;;
6561;SDS011;3314;50.890;4.722;2022-09-21T09:01:55;11.9;;;4.8;;
6561;SDS011;3314;50.890;4.722;2022-09-21T09:04:00;12.6;;;4.5;;
6561;SDS011;3314;50.890;4.722;2022-09-21T09:05:53;13.5;;;5.3;;
6561;SDS011;3314;50.890;4.722;2022-09-21T09:08:30;13.9;;;4.9;;
6561;SDS011;3314;50.890;4.722;2022-09-21T09:09:59;10.6;;;4.1;;
6561;SDS011;3314;50.890;4.722;2022-09-21T09:12:02;10.6;;;3.7;;
6561;SDS011;3314;50.890;4.722;2022-09-21T09:13:56;13.0;;;4.4;;
6561;SDS011;3314;50.890;4.722;2022-09-21T09:15:54;13.3;;;4.7;;
6561;SDS011;3314;50.890;4.722;2022-09-21T09:17:56;13.6;;;4.2;;
6561;SDS011;3314;50.890;4.722;2022-09-21T09:19:59;13.2;;;4.7;;
6561;SDS011;3314;50.890;4.722;2022-09-21T09:21:50;10.4;;;3.7;;
6561;SDS011;3314;50.890;4.722;2022-09-21T09:23:50;12.8;;;4.6;;
6561;SDS011;3314;50.890;4.722;2022-09-21T09:25:51;12.1;;;4.4;;
6561;SDS011;3314;50.890;4.722;2022-09-21T09:27:52;12.5;;;4.1;;
6561;SDS011;3314;50.890;4.722;2022-09-21T09:29:53;12.3;;;4.0;;
6561;SDS011;3314;50.890;4.722;2022-09-21T09:31:56;11.9;;;4.0;;
6561;SDS011;3314;50.890;4.722;2022-09-21T09:33:57;11.6;;;3.8;;
6561;SDS011;3314;50.890;4.722;2022-09-21T09:36:00;9.7;;;2.9;;
6561;SDS011;3314;50.890;4.722;2022-09-21T09:37:48;10.3;;;2.9;;
6561;SDS011;3314;50.890;4.722;2022-09-21T09:39:50;10.7;;;3.3;;
6561;SDS011;3314;50.890;4.722;2022-09-21T09:41:55;9.1;;;2.8;;
6561;SDS011;3314;50.890;4.722;2022-09-21T09:43:51;10.5;;;2.7;;
6561;SDS011;3314;50.890;4.722;2022-09-21T09:45:55;10.8;;;2.7;;
6561;SDS011;3314;50.890;4.722;2022-09-21T09:48:01;11.2;;;2.1;;
6561;SDS011;3314;50.890;4.722;2022-09-21T09:49:55;9.1;;;1.7;;
6561;SDS011;3314;50.890;4.722;2022-09-21T09:51:47;11.4;;;2.0;;
6561;SDS011;3314;50.890;4.722;2022-09-21T09:53:47;8.1;;;1.4;;
6561;SDS011;3314;50.890;4.722;2022-09-21T09:55:48;11.3;;;1.5;;
6561;SDS011;3314;50.890;4.722;2022-09-21T09:57:48;7.6;;;1.1;;
6561;SDS011;3314;50.890;4.722;2022-09-21T09:59:49;10.6;;;1.3;;
6561;SDS011;3314;50.890;4.722;2022-09-21T10:01:57;10.9;;;1.4;;
6561;SDS011;3314;50.890;4.722;2022-09-21T10:03:45;8.5;;;1.1;;
6561;SDS011;3314;50.890;4.722;2022-09-21T10:05:50;8.7;;;1.4;;
6561;SDS011;3314;50.890;4.722;2022-09-21T10:07:50;10.9;;;1.1;;
6561;SDS011;3314;50.890;4.722;2022-09-21T10:09:50;8.1;;;1.1;;
6561;SDS011;3314;50.890;4.722;2022-09-21T10:11:50;7.4;;;1.2;;
6561;SDS011;3314;50.890;4.722;2022-09-21T10:13:50;10.0;;;1.1;;
6561;SDS011;3314;50.890;4.722;2022-09-21T10:15:51;7.9;;;1.3;;
6561;SDS011;3314;50.890;4.722;2022-09-21T10:17:56;6.3;;;0.9;;
6561;SDS011;3314;50.890;4.722;2022-09-21T10:19:45;10.2;;;1.1;;
6561;SDS011;3314;50.890;4.722;2022-09-21T10:21:46;6.4;;;1.0;;
6561;SDS011;3314;50.890;4.722;2022-09-21T10:23:47;7.5;;;0.9;;
6561;SDS011;3314;50.890;4.722;2022-09-21T10:25:52;8.2;;;1.0;;
6561;SDS011;3314;50.890;4.722;2022-09-21T10:27:51;7.3;;;0.9;;
6561;SDS011;3314;50.890;4.722;2022-09-21T10:29:51;6.4;;;0.8;;
6561;SDS011;3314;50.890;4.722;2022-09-21T10:31:54;8.4;;;1.2;;
6561;SDS011;3314;50.890;4.722;2022-09-21T10:33:47;6.6;;;1.1;;
6561;SDS011;3314;50.890;4.722;2022-09-21T10:35:48;6.6;;;1.0;;
6561;SDS011;3314;50.890;4.722;2022-09-21T10:38:07;8.8;;;0.9;;
6561;SDS011;3314;50.890;4.722;2022-09-21T10:39:45;38.0;;;8.3;;
6561;SDS011;3314;50.890;4.722;2022-09-21T10:41:47;8.5;;;0.9;;
6561;SDS011;3314;50.890;4.722;2022-09-21T10:43:49;7.2;;;1.0;;
6561;SDS011;3314;50.890;4.722;2022-09-21T10:45:53;8.1;;;0.8;;
6561;SDS011;3314;50.890;4.722;2022-09-21T10:47:41;7.7;;;0.9;;
6561;SDS011;3314;50.890;4.722;2022-09-21T10:49:42;7.0;;;0.9;;
6561;SDS011;3314;50.890;4.722;2022-09-21T10:51:43;6.9;;;1.0;;
6561;SDS011;3314;50.890;4.722;2022-09-21T10:53:46;8.0;;;1.2;;
6561;SDS011;3314;50.890;4.722;2022-09-21T10:55:49;6.1;;;0.8;;
6561;SDS011;3314;50.890;4.722;2022-09-21T10:57:39;12.4;;;1.5;;
6561;SDS011;3314;50.890;4.722;2022-09-21T10:59:39;10.7;;;1.5;;
6561;SDS011;3314;50.890;4.722;2022-09-21T11:01:42;6.4;;;0.8;;
6561;SDS011;3314;50.890;4.722;2022-09-21T11:03:45;10.7;;;1.4;;
6561;SDS011;3314;50.890;4.722;2022-09-21T11:05:46;9.4;;;1.7;;
6561;SDS011;3314;50.890;4.722;2022-09-21T11:07:48;7.7;;;1.2;;
6561;SDS011;3314;50.890;4.722;2022-09-21T11:09:40;7.8;;;1.3;;
6561;SDS011;3314;50.890;4.722;2022-09-21T11:11:45;9.5;;;1.1;;
6561;SDS011;3314;50.890;4.722;2022-09-21T11:13:49;8.7;;;1.0;;
6561;SDS011;3314;50.890;4.722;2022-09-21T11:15:42;10.6;;;1.6;;
6561;SDS011;3314;50.890;4.722;2022-09-21T11:17:44;6.4;;;1.1;;
6561;SDS011;3314;50.890;4.722;2022-09-21T11:19:48;7.6;;;0.8;;
6561;SDS011;3314;50.890;4.722;2022-09-21T11:21:39;7.6;;;0.7;;
6561;SDS011;3314;50.890;4.722;2022-09-21T11:23:43;6.5;;;0.8;;
6561;SDS011;3314;50.890;4.722;2022-09-21T11:25:47;10.2;;;1.5;;
6561;SDS011;3314;50.890;4.722;2022-09-21T11:27:38;6.8;;;0.8;;
6561;SDS011;3314;50.890;4.722;2022-09-21T11:29:42;8.1;;;1.3;;
6561;SDS011;3314;50.890;4.722;2022-09-21T11:31:50;6.9;;;1.0;;
6561;SDS011;3314;50.890;4.722;2022-09-21T11:33:46;6.5;;;1.1;;
6561;SDS011;3314;50.890;4.722;2022-09-21T11:35:40;8.2;;;1.7;;
6561;SDS011;3314;50.890;4.722;2022-09-21T11:37:47;6.9;;;1.1;;
6561;SDS011;3314;50.890;4.722;2022-09-21T11:39:38;9.5;;;1.1;;
6561;SDS011;3314;50.890;4.722;2022-09-21T11:41:44;8.9;;;1.0;;
6561;SDS011;3314;50.890;4.722;2022-09-21T11:43:41;7.2;;;1.0;;
6561;SDS011;3314;50.890;4.722;2022-09-21T11:45:47;10.3;;;1.2;;
6561;SDS011;3314;50.890;4.722;2022-09-21T11:47:39;9.4;;;0.9;;
6561;SDS011;3314;50.890;4.722;2022-09-21T11:49:47;7.8;;;1.1;;
6561;SDS011;3314;50.890;4.722;2022-09-21T11:51:43;8.9;;;1.0;;
6561;SDS011;3314;50.890;4.722;2022-09-21T11:53:37;11.5;;;1.2;;
6561;SDS011;3314;50.890;4.722;2022-09-21T11:55:41;9.3;;;1.1;;
6561;SDS011;3314;50.890;4.722;2022-09-21T11:57:35;8.4;;;1.4;;
6561;SDS011;3314;50.890;4.722;2022-09-21T11:59:42;6.5;;;0.9;;
6561;SDS011;3314;50.890;4.722;2022-09-21T12:01:38;7.9;;;1.0;;
6561;SDS011;3314;50.890;4.722;2022-09-21T12:03:43;10.3;;;0.9;;
6561;SDS011;3314;50.890;4.722;2022-09-21T12:05:35;9.6;;;1.2;;
6561;SDS011;3314;50.890;4.722;2022-09-21T12:07:41;6.5;;;0.9;;
6561;SDS011;3314;50.890;4.722;2022-09-21T12:09:44;9.0;;;0.9;;
6561;SDS011;3314;50.890;4.722;2022-09-21T12:11:38;9.1;;;0.9;;
6561;SDS011;3314;50.890;4.722;2022-09-21T12:13:43;5.9;;;0.6;;
6561;SDS011;3314;50.890;4.722;2022-09-21T12:15:36;6.4;;;0.8;;
6561;SDS011;3314;50.890;4.722;2022-09-21T12:17:42;6.4;;;0.6;;
6561;SDS011;3314;50.890;4.722;2022-09-21T12:19:35;8.0;;;0.9;;
6561;SDS011;3314;50.890;4.722;2022-09-21T12:21:36;6.3;;;0.9;;
6561;SDS011;3314;50.890;4.722;2022-09-21T12:23:40;7.9;;;0.8;;
6561;SDS011;3314;50.890;4.722;2022-09-21T12:25:41;6.1;;;0.6;;
6561;SDS011;3314;50.890;4.722;2022-09-21T12:27:31;9.6;;;1.0;;
6561;SDS011;3314;50.890;4.722;2022-09-21T12:29:34;8.3;;;0.8;;
6561;SDS011;3314;50.890;4.722;2022-09-21T12:31:36;9.2;;;0.8;;
6561;SDS011;3314;50.890;4.722;2022-09-21T12:33:40;9.1;;;0.9;;
6561;SDS011;3314;50.890;4.722;2022-09-21T12:35:33;8.0;;;0.6;;
6561;SDS011;3314;50.890;4.722;2022-09-21T12:37:35;7.1;;;0.9;;
6561;SDS011;3314;50.890;4.722;2022-09-21T12:39:38;9.3;;;0.8;;
6561;SDS011;3314;50.890;4.722;2022-09-21T12:41:41;8.1;;;1.1;;